createdAt,value
2023-01-02T00:01:12.365Z,3.35
2023-01-02T00:03:40.355Z,3.88
2023-01-02T00:06:08.347Z,4.22
2023-01-02T00:08:37.447Z,4.30
2023-01-02T00:11:05.463Z,3.35
2023-01-02T00:13:33.600Z,3.65
2023-01-02T00:16:01.434Z,3.50
2023-01-02T00:18:29.170Z,3.75
2023-01-02T00:20:56.833Z,3.50
2023-01-02T00:23:24.555Z,3.63
2023-01-02T00:25:53.581Z,3.53
2023-01-02T00:28:21.274Z,3.85
2023-01-02T00:30:49.118Z,3.08
2023-01-02T00:33:17.281Z,3.20
2023-01-02T00:35:45.154Z,3.47
2023-01-02T00:38:13.538Z,3.50
2023-01-02T00:40:41.575Z,3.58
2023-01-02T00:43:10.720Z,3.60
2023-01-02T00:45:38.440Z,3.55
2023-01-02T00:48:06.239Z,4.00
2023-01-02T00:50:33.908Z,3.95
2023-01-02T00:53:02.272Z,3.90
2023-01-02T00:55:30.213Z,3.67
2023-01-02T00:57:57.867Z,3.42
2023-01-02T01:00:27.100Z,3.42
2023-01-02T01:02:56.671Z,3.65
2023-01-02T01:05:24.459Z,3.80
2023-01-02T01:07:52.503Z,4.10
2023-01-02T01:10:20.178Z,3.30
2023-01-02T01:12:48.642Z,4.45
2023-01-02T01:15:17.277Z,3.35
2023-01-02T01:17:47.754Z,3.55
2023-01-02T01:20:16.675Z,3.60
2023-01-02T01:22:44.382Z,3.58
2023-01-02T01:25:12.449Z,3.55
2023-01-02T01:27:40.415Z,2.88
2023-01-02T01:30:09.722Z,3.25
2023-01-02T01:33:04.685Z,3.00
2023-01-02T01:35:34.871Z,3.67
2023-01-02T01:38:03.083Z,3.47
2023-01-02T01:40:38.592Z,3.80
2023-01-02T01:43:13.777Z,3.30
2023-01-02T01:45:45.675Z,3.67
2023-01-02T01:50:45.873Z,3.22
2023-01-02T01:53:17.762Z,3.17
2023-01-02T01:55:51.565Z,3.00
2023-01-02T01:58:22.596Z,3.13
2023-01-02T02:00:52.712Z,2.90
2023-01-02T02:03:27.801Z,3.20
2023-01-02T02:05:57.050Z,2.75
2023-01-02T02:08:31.211Z,2.80
2023-01-02T02:11:00.643Z,2.92
2023-01-02T02:13:54.323Z,3.40
2023-01-02T02:16:34.776Z,3.13
2023-01-02T02:19:38.027Z,3.40
2023-01-02T02:22:31.755Z,2.80
2023-01-02T02:25:24.765Z,3.70
2023-01-02T02:28:16.143Z,3.17
2023-01-02T02:31:17.557Z,3.47
2023-01-02T02:33:54.588Z,3.15
2023-01-02T02:36:31.661Z,3.15
2023-01-02T02:39:12.671Z,3.50
2023-01-02T02:41:49.302Z,3.03
2023-01-02T02:44:30.209Z,2.72
2023-01-02T02:47:05.776Z,2.88
2023-01-02T02:49:45.121Z,3.25
2023-01-02T02:52:22.236Z,3.42
2023-01-02T02:54:56.026Z,3.05
2023-01-02T02:57:26.158Z,2.70
2023-01-02T02:59:56.649Z,2.80
2023-01-02T03:02:25.861Z,3.15
2023-01-02T03:04:57.746Z,3.25
2023-01-02T03:07:57.482Z,3.28
2023-01-02T03:10:36.664Z,3.45
2023-01-02T03:13:14.625Z,3.90
2023-01-02T03:15:52.728Z,3.45
2023-01-02T03:18:31.290Z,3.45
2023-01-02T03:21:07.763Z,3.38
2023-01-02T03:23:40.318Z,3.63
2023-01-02T03:26:08.604Z,3.22
2023-01-02T03:28:41.198Z,3.28
2023-01-02T03:31:13.728Z,3.13
2023-01-02T03:33:48.986Z,3.05
2023-01-02T03:36:20.800Z,3.25
2023-01-02T03:38:57.159Z,3.13
2023-01-02T03:41:29.660Z,3.45
2023-01-02T03:44:27.359Z,3.50
2023-01-02T03:47:04.613Z,2.90
2023-01-02T03:49:39.660Z,3.97
2023-01-02T03:52:08.249Z,3.10
2023-01-02T03:54:36.182Z,3.00
2023-01-02T03:57:14.067Z,2.97
2023-01-02T03:59:48.624Z,3.33
2023-01-02T04:02:25.136Z,3.30
2023-01-02T04:04:56.527Z,3.20
2023-01-02T04:07:28.777Z,3.50
2023-01-02T04:09:58.415Z,3.25
2023-01-02T04:12:27.728Z,2.97
2023-01-02T04:15:00.191Z,3.03
2023-01-02T04:17:35.678Z,3.22
2023-01-02T04:20:10.643Z,3.60
2023-01-02T04:22:43.950Z,3.15
2023-01-02T04:25:15.645Z,3.65
2023-01-02T04:27:49.749Z,3.55
2023-01-02T04:30:18.631Z,3.22
2023-01-02T04:32:48.748Z,3.20
2023-01-02T04:35:21.694Z,3.53
2023-01-02T04:37:49.995Z,3.60
2023-01-02T04:40:24.667Z,3.15
2023-01-02T04:42:52.648Z,3.25
2023-01-02T04:45:20.601Z,4.03
2023-01-02T04:47:51.783Z,3.30
2023-01-02T04:50:22.129Z,3.57
2023-01-02T04:52:50.803Z,3.90
2023-01-02T04:55:19.100Z,3.97
2023-01-02T04:57:47.763Z,5.28
2023-01-02T05:00:16.663Z,4.05
2023-01-02T05:02:45.795Z,3.95
2023-01-02T05:05:13.626Z,4.00
2023-01-02T05:07:44.604Z,3.65
2023-01-02T05:10:15.437Z,3.40
2023-01-02T05:12:43.747Z,3.42
2023-01-02T05:15:13.628Z,3.70
2023-01-02T05:17:44.759Z,3.63
2023-01-02T05:20:13.945Z,5.18
2023-01-02T05:23:00.369Z,4.85
2023-01-02T05:25:33.643Z,5.13
2023-01-02T05:28:02.908Z,5.25
2023-01-02T05:30:30.839Z,5.07
2023-01-02T05:32:58.484Z,5.47
2023-01-02T05:35:32.128Z,4.68
2023-01-02T05:38:02.464Z,4.70
2023-01-02T05:40:31.477Z,4.63
2023-01-02T05:42:59.944Z,5.03
2023-01-02T05:45:29.630Z,4.45
2023-01-02T05:47:57.259Z,4.53
2023-01-02T05:50:25.255Z,4.22
2023-01-02T05:52:56.780Z,3.70
2023-01-02T05:55:28.633Z,3.63
2023-01-02T05:58:02.626Z,3.10
2023-01-02T06:00:30.763Z,3.50
2023-01-02T06:03:02.246Z,4.10
2023-01-02T06:05:55.990Z,3.40
2023-01-02T06:08:49.082Z,3.38
2023-01-02T06:11:18.461Z,3.30
2023-01-02T06:16:42.114Z,3.58
2023-01-02T06:19:11.730Z,3.00
2023-01-02T06:21:40.260Z,3.53
2023-01-02T06:24:08.760Z,3.42
2023-01-02T06:26:36.457Z,3.03
2023-01-02T06:29:08.638Z,3.20
2023-01-02T06:32:02.175Z,3.00
2023-01-02T06:34:32.641Z,3.28
2023-01-02T06:37:04.588Z,3.30
2023-01-02T06:39:37.643Z,2.97
2023-01-02T06:42:06.385Z,2.80
2023-01-02T06:44:35.431Z,2.65
2023-01-02T06:47:03.078Z,3.33
2023-01-02T06:49:36.648Z,2.80
2023-01-02T06:52:04.766Z,2.78
2023-01-02T06:54:58.855Z,2.88
2023-01-02T06:57:27.282Z,2.78
2023-01-02T06:59:56.309Z,2.40
2023-01-02T07:02:24.698Z,2.90
2023-01-02T07:04:53.482Z,2.70
2023-01-02T07:07:21.315Z,2.97
2023-01-02T07:09:48.999Z,2.95
2023-01-02T07:12:18.229Z,2.78
2023-01-02T07:14:46.084Z,2.60
2023-01-02T07:17:15.563Z,2.90
2023-01-02T07:19:46.015Z,2.70
2023-01-02T07:22:17.603Z,2.70
2023-01-02T07:24:45.665Z,2.42
2023-01-02T07:27:15.106Z,2.45
2023-01-02T07:29:43.261Z,2.70
2023-01-02T07:32:11.358Z,2.53
2023-01-02T07:34:40.477Z,2.70
2023-01-02T07:37:08.170Z,2.75
2023-01-02T07:39:37.759Z,2.65
2023-01-02T07:42:06.641Z,2.60
2023-01-02T07:44:36.656Z,2.80
2023-01-02T07:47:30.202Z,2.65
2023-01-02T07:49:59.797Z,2.42
2023-01-02T07:52:28.236Z,2.90
2023-01-02T07:54:56.111Z,2.40
2023-01-02T07:57:23.844Z,2.92
2023-01-02T08:00:18.780Z,2.80
2023-01-02T08:02:49.837Z,2.40
2023-01-02T08:05:19.874Z,2.30
2023-01-02T08:07:49.629Z,2.10
2023-01-02T08:10:19.669Z,2.75
2023-01-02T08:12:47.352Z,2.40
2023-01-02T08:15:18.623Z,2.95
2023-01-02T08:17:46.302Z,2.35
2023-01-02T08:20:13.977Z,2.22
2023-01-02T08:22:43.095Z,2.85
2023-01-02T08:25:12.396Z,2.28
2023-01-02T08:27:42.164Z,2.50
2023-01-02T08:30:10.996Z,2.22
2023-01-02T08:32:43.660Z,2.42
2023-01-02T08:35:11.781Z,2.35
2023-01-02T08:37:39.472Z,2.40
2023-01-02T08:40:09.755Z,2.28
2023-01-02T08:42:37.382Z,2.45
2023-01-02T08:45:06.316Z,2.35
2023-01-02T08:47:33.979Z,2.53
2023-01-02T08:50:07.673Z,2.15
2023-01-02T08:52:36.767Z,2.25
2023-01-02T08:55:09.090Z,2.30
2023-01-02T08:57:36.748Z,2.45
2023-01-02T09:00:04.937Z,2.13
2023-01-02T09:02:33.254Z,2.33
2023-01-02T09:05:01.228Z,2.63
2023-01-02T09:07:32.245Z,3.08
2023-01-02T09:10:00.776Z,2.40
2023-01-02T09:12:31.639Z,2.50
2023-01-02T09:14:59.839Z,2.45
2023-01-02T09:17:27.548Z,2.40
2023-01-02T09:19:55.247Z,2.30
2023-01-02T09:22:23.660Z,2.50
2023-01-02T09:24:51.630Z,2.65
2023-01-02T09:27:21.674Z,2.20
2023-01-02T09:29:53.743Z,2.40
2023-01-02T09:32:23.655Z,2.78
2023-01-02T09:34:52.802Z,2.60
2023-01-02T09:37:21.114Z,2.30
2023-01-02T09:39:49.651Z,2.60
2023-01-02T09:42:18.493Z,2.83
2023-01-02T09:44:50.548Z,2.65
2023-01-02T09:47:22.625Z,1.95
2023-01-02T09:49:54.038Z,1.85
2023-01-02T09:52:31.114Z,1.70
2023-01-02T09:54:58.902Z,1.40
2023-01-02T09:57:39.293Z,1.10
2023-01-02T10:00:15.794Z,0.98
2023-01-02T10:03:08.290Z,0.93
2023-01-02T10:05:55.651Z,0.70
2023-01-02T10:08:32.806Z,0.80
2023-01-02T10:11:10.995Z,1.10
2023-01-02T10:14:17.194Z,0.90
2023-01-02T10:16:38.355Z,0.95
2023-01-02T10:19:19.680Z,0.80
2023-01-02T10:21:50.996Z,1.00
2023-01-02T10:24:25.829Z,1.00
2023-01-02T10:26:54.978Z,1.00
2023-01-02T10:32:27.678Z,1.00
2023-01-02T10:35:12.782Z,1.10
2023-01-02T10:38:06.678Z,0.90
2023-01-02T10:40:47.071Z,1.10
2023-01-02T10:43:40.115Z,1.15
2023-01-02T10:46:35.824Z,1.58
2023-01-02T10:49:06.676Z,1.50
2023-01-02T10:51:37.746Z,1.63
2023-01-02T10:54:06.960Z,1.73
2023-01-02T10:56:37.254Z,1.60
2023-01-02T10:59:17.254Z,1.90
2023-01-02T11:01:51.964Z,1.80
2023-01-02T11:04:25.646Z,1.95
2023-01-02T11:09:26.342Z,2.15
2023-01-02T11:11:55.751Z,2.22
2023-01-02T11:14:28.213Z,2.55
2023-01-02T11:17:02.983Z,2.60
2023-01-02T11:19:31.793Z,2.42
2023-01-02T11:22:02.516Z,2.40
2023-01-02T11:24:30.327Z,2.10
2023-01-02T11:27:02.769Z,2.22
2023-01-02T11:29:33.671Z,2.15
2023-01-02T11:32:03.086Z,2.00
2023-01-02T11:34:36.669Z,2.00
2023-01-02T11:37:17.800Z,1.90
2023-01-02T11:39:59.100Z,2.03
2023-01-02T11:42:50.913Z,1.90
2023-01-02T11:45:45.040Z,2.15
2023-01-02T11:48:18.662Z,2.30
2023-01-02T11:50:47.228Z,2.20
2023-01-02T11:53:21.693Z,2.30
2023-01-02T11:55:55.774Z,2.20
2023-01-02T11:58:32.681Z,2.30
2023-01-02T12:01:05.765Z,2.33
2023-01-02T12:03:34.951Z,2.40
2023-01-02T12:06:16.094Z,2.58
2023-01-02T12:09:01.578Z,2.47
2023-01-02T12:11:45.155Z,2.40
2023-01-02T12:14:17.904Z,2.80
2023-01-02T12:16:53.437Z,2.42
2023-01-02T12:19:39.383Z,2.78
2023-01-02T12:22:21.388Z,2.97
2023-01-02T12:27:35.591Z,2.80
2023-01-02T12:30:11.364Z,3.25
2023-01-02T12:33:08.680Z,2.80
2023-01-02T12:35:53.804Z,3.00
2023-01-02T12:38:33.156Z,3.05
2023-01-02T12:41:17.486Z,2.90
2023-01-02T12:44:00.151Z,2.65
2023-01-02T12:47:00.067Z,2.58
2023-01-02T12:49:45.687Z,2.60
2023-01-02T12:52:26.358Z,2.35
2023-01-02T12:55:13.744Z,2.60
2023-01-02T12:57:54.706Z,2.30
2023-01-02T13:00:46.773Z,2.20
2023-01-02T13:03:48.941Z,2.20
2023-01-02T13:06:45.889Z,2.53
2023-01-02T13:09:20.086Z,2.13
2023-01-02T13:11:56.881Z,2.13
2023-01-02T13:14:32.224Z,2.00
2023-01-02T13:17:25.231Z,2.25
2023-01-02T13:19:57.960Z,2.40
2023-01-02T13:22:37.692Z,2.20
2023-01-02T13:25:06.819Z,2.10
2023-01-02T13:27:36.658Z,2.05
2023-01-02T13:30:07.136Z,2.10
2023-01-02T13:32:34.893Z,2.20
2023-01-02T13:35:04.842Z,2.38
2023-01-02T13:37:32.787Z,2.40
2023-01-02T13:40:04.116Z,2.17
2023-01-02T13:42:52.718Z,2.20
2023-01-02T13:45:25.229Z,2.20
2023-01-02T13:47:56.885Z,2.13
2023-01-02T13:50:28.295Z,2.20
2023-01-02T13:53:22.969Z,2.13
2023-01-02T13:56:04.781Z,2.08
2023-01-02T14:01:35.198Z,1.80
2023-01-02T14:04:32.967Z,1.77
2023-01-02T14:07:41.846Z,1.77
2023-01-02T14:10:32.670Z,2.03
2023-01-02T14:13:09.547Z,2.10
2023-01-02T14:16:00.078Z,2.08
2023-01-02T14:18:31.841Z,2.00
2023-01-02T14:21:03.494Z,1.88
2023-01-02T14:23:38.156Z,2.00
2023-01-02T14:26:06.608Z,2.20
2023-01-02T14:28:40.129Z,2.03
2023-01-02T14:31:18.900Z,2.30
2023-01-02T14:33:55.681Z,2.00
2023-01-02T14:36:37.054Z,2.45
2023-01-02T14:39:04.993Z,2.23
2023-01-02T14:42:24.745Z,2.50
2023-01-02T14:45:00.820Z,2.40
2023-01-02T14:47:36.878Z,2.45
2023-01-02T14:50:14.715Z,2.65
2023-01-02T14:52:45.818Z,2.65
2023-01-02T14:55:18.709Z,2.70
2023-01-02T14:57:50.032Z,2.58
2023-01-02T15:00:24.606Z,2.50
2023-01-02T15:03:00.218Z,2.67
2023-01-02T15:05:36.683Z,2.67
2023-01-02T15:08:08.594Z,2.60
2023-01-02T15:10:56.120Z,2.80
2023-01-02T15:13:27.114Z,3.30
2023-01-02T15:15:59.162Z,3.50
2023-01-02T15:18:30.379Z,3.13
2023-01-02T15:21:08.183Z,3.63
2023-01-02T15:23:39.656Z,3.20
2023-01-02T15:26:31.975Z,3.10
2023-01-02T15:29:04.591Z,2.95
2023-01-02T15:31:34.712Z,2.70
2023-01-02T15:34:02.798Z,2.92
2023-01-02T15:36:37.507Z,2.90
2023-01-02T15:39:12.495Z,3.20
2023-01-02T15:41:43.989Z,3.00
2023-01-02T15:44:31.100Z,3.15
2023-01-02T15:46:59.967Z,2.80
2023-01-02T15:49:27.922Z,2.97
2023-01-02T15:51:58.941Z,3.10
2023-01-02T15:54:27.898Z,2.90
2023-01-02T15:57:06.189Z,2.50
2023-01-02T15:59:36.993Z,2.80
2023-01-02T16:02:08.515Z,2.88
2023-01-02T16:04:36.425Z,2.80
2023-01-02T16:07:17.680Z,2.90
2023-01-02T16:09:54.739Z,3.20
2023-01-02T16:12:24.616Z,3.13
2023-01-02T16:14:57.096Z,3.38
2023-01-02T16:17:28.734Z,3.20
2023-01-02T16:19:59.774Z,3.25
2023-01-02T16:22:32.316Z,3.33
2023-01-02T16:25:05.651Z,3.35
2023-01-02T16:27:38.879Z,3.88
2023-01-02T16:30:17.141Z,3.85
2023-01-02T16:32:49.248Z,4.93
2023-01-02T16:35:22.725Z,5.32
2023-01-02T16:37:57.248Z,6.28
2023-01-02T16:41:00.909Z,6.10
2023-01-02T16:43:31.534Z,6.15
2023-01-02T16:46:00.825Z,5.82
2023-01-02T16:48:30.300Z,5.32
2023-01-02T16:50:59.834Z,5.55
2023-01-02T16:53:32.777Z,4.78
2023-01-02T16:56:01.505Z,5.55
2023-01-02T16:58:29.877Z,5.50
2023-01-02T17:00:58.003Z,5.93
2023-01-02T17:03:27.733Z,6.85
2023-01-02T17:06:02.507Z,6.07
2023-01-02T17:08:32.775Z,6.95
2023-01-02T17:11:00.853Z,6.93
2023-01-02T17:13:29.813Z,6.53
2023-01-02T17:15:58.768Z,6.72
2023-01-02T17:18:27.723Z,6.03
2023-01-02T17:20:55.405Z,6.00
2023-01-02T17:23:23.227Z,6.25
2023-01-02T17:25:52.516Z,5.88
2023-01-02T17:28:20.799Z,5.82
2023-01-02T17:30:50.020Z,5.63
2023-01-02T17:33:18.752Z,5.90
2023-01-02T17:35:46.797Z,5.78
2023-01-02T17:38:15.702Z,6.20
2023-01-02T17:40:43.355Z,5.18
2023-01-02T17:43:12.533Z,5.13
2023-01-02T17:45:42.136Z,5.30
2023-01-02T17:48:13.558Z,5.75
2023-01-02T17:50:43.918Z,5.35
2023-01-02T17:53:11.571Z,5.68
2023-01-02T17:55:39.226Z,5.25
2023-01-02T17:58:07.254Z,5.60
2023-01-02T18:00:36.405Z,5.82
2023-01-02T18:03:04.407Z,6.10
2023-01-02T18:05:32.807Z,5.85
2023-01-02T18:08:01.189Z,6.95
2023-01-02T18:10:33.076Z,8.27
2023-01-02T18:15:29.479Z,4.95
2023-01-02T18:18:02.349Z,5.30
2023-01-02T18:20:30.218Z,4.75
2023-01-02T18:22:58.708Z,4.38
2023-01-02T18:25:28.680Z,5.05
2023-01-02T18:28:03.682Z,4.90
2023-01-02T18:30:32.365Z,4.43
2023-01-02T18:33:14.391Z,4.90
2023-01-02T18:35:58.677Z,5.38
2023-01-02T18:38:32.724Z,5.00
2023-01-02T18:41:02.788Z,5.40
2023-01-02T18:43:35.519Z,5.53
2023-01-02T18:46:14.705Z,5.10
2023-01-02T18:48:44.159Z,4.97
2023-01-02T18:51:22.205Z,4.80
2023-01-02T18:53:54.150Z,4.90
2023-01-02T18:56:26.808Z,4.55
2023-01-02T18:59:02.648Z,4.53
2023-01-02T19:01:36.372Z,4.50
2023-01-02T19:04:27.685Z,5.30
2023-01-02T19:06:57.582Z,4.95
2023-01-02T19:09:31.594Z,5.53
2023-01-02T19:12:21.543Z,5.32
2023-01-02T19:14:50.080Z,5.97
2023-01-02T19:17:23.960Z,5.75
2023-01-02T19:19:56.063Z,5.43
2023-01-02T19:22:28.847Z,6.47
2023-01-02T19:25:02.061Z,7.05
2023-01-02T19:27:37.218Z,6.80
2023-01-02T19:30:08.565Z,8.18
2023-01-02T19:32:37.494Z,7.65
2023-01-02T19:36:02.728Z,7.63
2023-01-02T19:38:33.812Z,8.10
2023-01-02T19:41:01.863Z,8.90
2023-01-02T19:43:29.725Z,9.27
2023-01-02T19:45:57.419Z,9.20
2023-01-02T19:48:25.190Z,8.57
2023-01-02T19:50:54.695Z,8.40
2023-01-02T19:53:22.747Z,8.73
2023-01-02T19:55:50.833Z,8.50
2023-01-02T19:58:19.729Z,8.70
2023-01-02T20:00:48.291Z,8.07
2023-01-02T20:03:16.078Z,8.25
2023-01-02T20:05:45.184Z,8.27
2023-01-02T20:08:14.413Z,8.02
2023-01-02T20:10:42.362Z,7.90
2023-01-02T20:13:10.090Z,7.53
2023-01-02T20:15:37.827Z,8.02
2023-01-02T20:18:08.852Z,7.40
2023-01-02T20:20:38.460Z,7.90
2023-01-02T20:23:06.700Z,7.80
2023-01-02T20:25:35.766Z,8.18
2023-01-02T20:28:04.187Z,7.40
2023-01-02T20:30:31.907Z,7.28
2023-01-02T20:33:01.311Z,7.97
2023-01-02T20:35:29.020Z,8.50
2023-01-02T20:37:56.735Z,7.63
2023-01-02T20:40:24.441Z,8.13
2023-01-02T20:42:53.508Z,7.63
2023-01-02T20:45:21.264Z,7.78
2023-01-02T20:47:49.090Z,7.65
2023-01-02T20:50:17.591Z,8.30
2023-01-02T20:52:45.705Z,7.40
2023-01-02T20:55:13.787Z,7.40
2023-01-02T20:57:41.547Z,8.00
2023-01-02T21:00:11.995Z,7.55
2023-01-02T21:02:39.822Z,7.75
2023-01-02T21:05:08.038Z,7.20
2023-01-02T21:07:36.280Z,7.03
2023-01-02T21:10:04.093Z,6.80
2023-01-02T21:12:49.721Z,6.97
2023-01-02T21:15:32.857Z,6.13
2023-01-02T21:18:00.831Z,5.80
2023-01-02T21:20:28.602Z,6.68
2023-01-02T21:22:56.393Z,6.60
2023-01-02T21:25:24.381Z,6.10
2023-01-02T21:27:52.168Z,6.65
2023-01-02T21:30:21.660Z,6.28
2023-01-02T21:32:49.710Z,6.45
2023-01-02T21:35:17.521Z,6.63
2023-01-02T21:37:45.183Z,6.35
2023-01-02T21:40:13.404Z,5.93
2023-01-02T21:42:44.861Z,6.65
2023-01-02T21:45:13.441Z,6.20
2023-01-02T21:47:42.527Z,6.65
2023-01-02T21:50:10.686Z,6.60
2023-01-02T21:52:39.707Z,7.10
2023-01-02T21:55:08.093Z,7.10
2023-01-02T21:58:11.718Z,7.35
2023-01-02T22:00:26.820Z,6.90
2023-01-02T22:02:56.810Z,7.28
2023-01-02T22:05:24.836Z,7.70
2023-01-02T22:07:52.550Z,7.70
2023-01-02T22:10:20.396Z,7.55
2023-01-02T22:12:48.054Z,7.60
2023-01-02T22:15:17.633Z,7.50
2023-01-02T22:17:45.346Z,7.50
2023-01-02T22:20:14.503Z,7.60
2023-01-02T22:22:42.373Z,7.70
2023-01-02T22:25:11.177Z,7.63
2023-01-02T22:27:42.812Z,7.60
2023-01-02T22:30:23.020Z,7.80
2023-01-02T22:32:52.703Z,7.68
2023-01-02T22:35:22.270Z,8.40
2023-01-02T22:37:50.107Z,8.25
2023-01-02T22:40:17.880Z,8.63
2023-01-02T22:43:06.066Z,9.23
2023-01-02T22:45:40.565Z,8.55
2023-01-02T22:48:15.657Z,9.18
2023-01-02T22:50:47.369Z,8.77
2023-01-02T22:53:19.547Z,8.43
2023-01-02T22:55:47.802Z,9.27
2023-01-02T22:58:15.694Z,9.23
2023-01-02T23:00:43.609Z,9.45
2023-01-02T23:03:14.343Z,8.80
2023-01-02T23:05:42.701Z,8.77
2023-01-02T23:08:12.008Z,9.68
2023-01-02T23:10:39.756Z,9.98
2023-01-02T23:13:07.420Z,9.32
2023-01-02T23:15:35.310Z,9.52
2023-01-02T23:18:22.947Z,9.18
2023-01-02T23:20:51.843Z,9.85
2023-01-02T23:23:21.527Z,10.32
2023-01-02T23:25:49.268Z,10.57
2023-01-02T23:28:32.313Z,11.02
2023-01-02T23:31:04.824Z,11.52
2023-01-02T23:33:32.730Z,10.90
2023-01-02T23:36:00.530Z,12.32
2023-01-02T23:38:30.686Z,10.90
2023-01-02T23:40:58.388Z,11.57
2023-01-02T23:43:26.468Z,11.20
2023-01-02T23:45:55.765Z,10.90
2023-01-02T23:48:24.605Z,11.32
2023-01-02T23:50:57.627Z,11.07
2023-01-02T23:53:50.658Z,11.65
2023-01-02T23:56:22.705Z,11.02
